Vicki Ann — WYE3508 — position and weather

sailwx.info

Track history (hours):
 
Tides and Currents Weather Stations Pressure Air Temp Water Temp Dewpoint Dewpoint Depression Visibility Wind Speed Wind Dir Waves Ship Positions

Vicki Ann

Owner: JANKOVICH, TOM J, SAN PEDRO, CA. More information available from US FCC via Universal Licensing System and Coast Guard Vessel Documentation Center.

Last reported at 2018-Jun-23 15:29 UTC. Time now 2018-Jun-23 15:45 UTC.
Position N 33°46' W 118°16'.

MMSI: 367006790.

Date/timePositionNaut miles runAvg speedWind from/ knotsBaromVisibWave heightAir tempDewpointWater temp
2018-Jun-23 15:29N 33°46' W 118°16'0 0.0
2018-Jun-23 15:00N 33°46' W 118°16'0 0.4
2018-Jun-23 14:30N 33°46' W 118°17'2 3.8
2018-Jun-23 14:00N 33°44' W 118°16'0 0.1
2018-Jun-23 13:30N 33°44' W 118°17'0 0.0
2018-Jun-23 12:59N 33°44' W 118°17'0 0.0
2018-Jun-22 23:16N 33°44' W 118°17'0 0.1
2018-Jun-22 23:00N 33°44' W 118°17'0 0.1
2018-Jun-22 22:30N 33°44' W 118°16'2 4.7
2018-Jun-22 22:00N 33°44' W 118°14'1 1.6
2018-Jun-22 21:30N 33°44' W 118°13'0 0.0
2018-Jun-22 21:00N 33°44' W 118°13'0 0.0
2018-Jun-22 20:30N 33°44' W 118°13'0 0.0
2018-Jun-22 20:00N 33°44' W 118°13'2 4.2
2018-Jun-22 19:30N 33°43' W 118°15'2 3.7
2018-Jun-22 19:00N 33°44' W 118°17'0 0.0
2018-Jun-20 22:39N 33°44' W 118°17'0 0.0
2018-Jun-20 22:30N 33°44' W 118°17'0 0.1
2018-Jun-20 22:00N 33°44' W 118°16'0 0.1
2018-Jun-20 21:30N 33°44' W 118°17'0 0.0
2018-Jun-20 21:00N 33°44' W 118°17'0 0.0
2018-Jun-20 20:29N 33°44' W 118°17'0 0.4
2018-Jun-20 20:00N 33°44' W 118°16'0 0.1
2018-Jun-20 19:30N 33°44' W 118°16'0 0.0
2018-Jun-20 19:00N 33°44' W 118°16'0 0.0
2018-Jun-20 18:30N 33°44' W 118°16'0 0.0
2018-Jun-20 18:00N 33°44' W 118°16'0 0.0
2018-Jun-20 17:30N 33°44' W 118°16'0 0.0
2018-Jun-20 17:00N 33°44' W 118°16'0 0.0
2018-Jun-20 16:30N 33°44' W 118°16'0 0.0
2018-Jun-20 16:00N 33°44' W 118°16'0 0.0
2018-Jun-20 15:30N 33°44' W 118°16'0 0.4
2018-Jun-20 15:00N 33°44' W 118°16'0 0.2
2018-Jun-20 14:30N 33°44' W 118°17'0 0.0
2018-Jun-19 23:25N 33°44' W 118°16'2 4.0
2018-Jun-19 23:00N 33°43' W 118°15'1 2.3
2018-Jun-19 22:30N 33°43' W 118°14'0 0.0
2018-Jun-19 22:00N 33°43' W 118°14'0 0.0
2018-Jun-19 21:30N 33°43' W 118°14'0 0.0
2018-Jun-19 21:00N 33°43' W 118°14'0 0.0
2018-Jun-19 20:29N 33°43' W 118°14'0 0.1
2018-Jun-19 20:00N 33°43' W 118°14'0 0.0
2018-Jun-19 19:30N 33°43' W 118°14'0 0.0
2018-Jun-19 19:00N 33°43' W 118°14'0 0.0
2018-Jun-19 18:30N 33°43' W 118°14'0 0.0
2018-Jun-19 17:59N 33°43' W 118°14'0 0.0
2018-Jun-19 17:30N 33°43' W 118°14'1 2.3
2018-Jun-19 17:00N 33°44' W 118°13'2 3.6
2018-Jun-19 16:30N 33°46' W 118°13'0 0.0
2018-Jun-19 15:59N 33°46' W 118°13'0 0.0
2018-Jun-19 15:30N 33°46' W 118°13'0 0.0
2018-Jun-19 15:00N 33°46' W 118°13'0 0.0
2018-Jun-19 14:30N 33°46' W 118°13'0 0.0
2018-Jun-19 14:00N 33°46' W 118°13'0 0.0
2018-Jun-19 13:30N 33°46' W 118°13'0 0.0
2018-Jun-19 13:00N 33°46' W 118°13'2 3.6
2018-Jun-19 12:29N 33°44' W 118°13'3 5.2
2018-Jun-19 12:00N 33°43' W 118°16'1 1.9
2018-Jun-19 11:30N 33°44' W 118°17'0 0.0
2018-Jun-19 03:23N 33°44' W 118°17'1 2.7
2018-Jun-19 03:00N 33°44' W 118°15'0 0.8
2018-Jun-19 02:30N 33°44' W 118°15'0 0.0
2018-Jun-19 01:58N 33°44' W 118°15'0 0.0
2018-Jun-19 01:28N 33°44' W 118°15'0 0.0
2018-Jun-19 01:00N 33°44' W 118°15'0 0.0
2018-Jun-19 00:29N 33°44' W 118°15'0 0.1
2018-Jun-19 00:00N 33°44' W 118°15'0 0.1
2018-Jun-18 23:30N 33°44' W 118°15'0 0.0
2018-Jun-18 23:00N 33°44' W 118°15'0 0.0
2018-Jun-18 22:30N 33°44' W 118°15'0 0.0
2018-Jun-18 22:00N 33°44' W 118°15'0 0.0
2018-Jun-18 21:30N 33°44' W 118°15'0 0.1
2018-Jun-18 21:00N 33°44' W 118°15'0 0.0
2018-Jun-18 20:30N 33°44' W 118°15'0 0.0
2018-Jun-18 20:00N 33°44' W 118°15'0 0.0
2018-Jun-18 19:30N 33°44' W 118°15'0 0.0
2018-Jun-18 19:00N 33°44' W 118°15'0 0.1
2018-Jun-18 18:30N 33°44' W 118°15'0 0.0
2018-Jun-18 18:00N 33°44' W 118°15'0 0.0
2018-Jun-18 17:29N 33°44' W 118°15'0 0.0
2018-Jun-18 17:00N 33°44' W 118°15'0 0.0
2018-Jun-18 16:30N 33°44' W 118°15'0 0.1
2018-Jun-18 16:00N 33°44' W 118°15'1 2.7
2018-Jun-18 15:30N 33°44' W 118°16'0 0.1
2018-Jun-18 15:00N 33°44' W 118°17'0 0.0
2018-Jun-18 14:30N 33°44' W 118°17'0 0.0
2018-Jun-18 14:00N 33°44' W 118°17'0 0.0
2018-Jun-18 13:30N 33°44' W 118°17'0 0.0
2018-Jun-18 13:00N 33°44' W 118°17'0 0.0
2018-Jun-18 03:33N 33°44' W 118°17'0 0.2
2018-Jun-18 03:31N 33°44' W 118°17'2 3.1
2018-Jun-18 03:00N 33°45' W 118°16'1 2.1
2018-Jun-18 02:31N 33°44' W 118°17'1 1.1
2018-Jun-18 02:00N 33°44' W 118°17'0 0.0
2018-Jun-18 01:31N 33°44' W 118°17'0 0.0
2018-Jun-18 01:00N 33°44' W 118°17'0 0.0
2018-Jun-18 00:31N 33°44' W 118°17'0 0.0
2018-Jun-18 00:01N 33°44' W 118°17'0 0.0
2018-Jun-17 23:30N 33°44' W 118°17'2 3.2
2018-Jun-17 23:01N 33°45' W 118°16'2 3.2
2018-Jun-17 22:30N 33°44' W 118°16'2 4.6
2018-Jun-17 22:01N 33°43' W 118°14'0 0.9
2018-Jun-17 21:31N 33°43' W 118°14'2 4.1
2018-Jun-17 21:01N 33°44' W 118°17'1 2.2
2018-Jun-17 20:31N 33°45' W 118°16'0 0.0
2018-Jun-17 20:01N 33°45' W 118°16'1 1.8
2018-Jun-17 19:31N 33°44' W 118°16'3 5.3
2018-Jun-17 19:00N 33°44' W 118°13'1 1.9
2018-Jun-17 18:31N 33°44' W 118°12'1 2.8
2018-Jun-17 18:00N 33°45' W 118°11'0 0.1
2018-Jun-17 17:30N 33°45' W 118°11'0 0.0
2018-Jun-17 17:01N 33°45' W 118°11'2 3.2
2018-Jun-17 16:31N 33°45' W 118°13'2 4.3
2018-Jun-17 16:01N 33°45' W 118°16'1 2.5
2018-Jun-17 15:30N 33°44' W 118°17'2 3.0
2018-Jun-17 15:00N 33°43' W 118°16'4 8.5
2018-Jun-17 14:31N 33°44' W 118°11'0 0.3
2018-Jun-17 14:00N 33°44' W 118°11'3 6.3
2018-Jun-17 13:30N 33°43' W 118°14'2 4.0
2018-Jun-17 13:01N 33°44' W 118°17'0 0.0
2018-Jun-17 03:20N 33°44' W 118°17'1 2.2
2018-Jun-17 03:00N 33°44' W 118°16'1 1.2
2018-Jun-17 02:30N 33°44' W 118°15'0 0.0
2018-Jun-17 02:00N 33°44' W 118°15'0 0.0
2018-Jun-17 01:30N 33°44' W 118°15'1 1.5
2018-Jun-17 01:01N 33°43' W 118°16'1 1.4
2018-Jun-17 00:30N 33°44' W 118°17'0 0.0
2018-Jun-17 00:00N 33°44' W 118°17'1 2.4
2018-Jun-16 23:30N 33°44' W 118°15'0 0.0
2018-Jun-16 23:00N 33°44' W 118°15'0 0.1
2018-Jun-16 22:30N 33°44' W 118°15'1 1.9
2018-Jun-16 22:00N 33°43' W 118°16'1 1.5
2018-Jun-16 21:30N 33°44' W 118°17'0 0.0
2018-Jun-16 21:00N 33°44' W 118°17'0 0.0
2018-Jun-16 20:30N 33°44' W 118°17'0 0.0
2018-Jun-16 20:00N 33°44' W 118°17'0 0.0
2018-Jun-16 19:30N 33°44' W 118°17'0 0.0
2018-Jun-16 19:00N 33°44' W 118°17'0 0.0
2018-Jun-16 18:31N 33°44' W 118°17'0 0.0
2018-Jun-16 17:56N 33°44' W 118°17'0 0.0
2018-Jun-16 17:30N 33°44' W 118°17'0 0.0
2018-Jun-16 16:59N 33°44' W 118°17'0 0.0
2018-Jun-16 16:31N 33°44' W 118°17'0 0.0
2018-Jun-16 16:00N 33°44' W 118°17'0 0.0
2018-Jun-16 15:30N 33°44' W 118°17'0 0.0
2018-Jun-16 15:00N 33°44' W 118°17'0 0.0
2018-Jun-16 14:30N 33°44' W 118°17'0 0.0
2018-Jun-16 14:00N 33°44' W 118°17'0 0.0
2018-Jun-15 21:03N 33°44' W 118°17'0 0.1
2018-Jun-15 21:00N 33°44' W 118°17'2 3.6
2018-Jun-15 20:31N 33°45' W 118°16'0 0.2
2018-Jun-15 20:01N 33°45' W 118°16'0 0.0
2018-Jun-15 19:31N 33°45' W 118°16'0 0.0
2018-Jun-15 19:01N 33°45' W 118°16'0 0.0
2018-Jun-15 18:31N 33°45' W 118°16'0 0.0
2018-Jun-15 18:00N 33°45' W 118°16'0 0.0
2018-Jun-15 17:30N 33°45' W 118°16'0 0.8
2018-Jun-15 17:00N 33°45' W 118°16'2 4.4
2018-Jun-15 16:30N 33°43' W 118°16'2 5.0
2018-Jun-15 16:01N 33°43' W 118°13'1 2.8
2018-Jun-15 15:31N 33°44' W 118°11'0 0.0
2018-Jun-15 11:52N 33°44' W 118°11'0 0.3
2018-Jun-15 11:30N 33°44' W 118°11'2 3.9
2018-Jun-15 11:00N 33°43' W 118°13'3 5.1
2018-Jun-15 10:31N 33°43' W 118°16'0 0.0
2018-Jun-14 23:28N 33°44' W 118°16'0 0.1
2018-Jun-14 23:00N 33°44' W 118°17'0 0.1
2018-Jun-14 22:30N 33°44' W 118°16'0 0.1
2018-Jun-14 22:00N 33°44' W 118°17'0 0.0
2018-Jun-14 21:29N 33°44' W 118°17'1 3.1
2018-Jun-14 21:00N 33°43' W 118°15'2 4.2
2018-Jun-14 20:30N 33°44' W 118°13'1 2.5
2018-Jun-14 20:00N 33°45' W 118°12'0 0.0
2018-Jun-14 19:30N 33°45' W 118°12'3 5.6
2018-Jun-14 19:00N 33°43' W 118°14'2 3.9
2018-Jun-14 18:30N 33°44' W 118°17'0 0.5
2018-Jun-14 17:59N 33°44' W 118°16'0 0.0
2018-Jun-14 17:30N 33°44' W 118°16'0 0.0
2018-Jun-14 17:00N 33°44' W 118°16'0 0.0
2018-Jun-14 16:30N 33°44' W 118°16'0 0.0
2018-Jun-14 16:00N 33°44' W 118°16'0 0.0
2018-Jun-14 15:30N 33°44' W 118°16'0 0.0
2018-Jun-14 15:00N 33°44' W 118°16'0 0.0
2018-Jun-14 14:30N 33°44' W 118°16'0 0.0
2018-Jun-14 14:00N 33°44' W 118°16'0 0.5
2018-Jun-14 13:30N 33°44' W 118°17'0 0.0
2018-Jun-14 00:08N 33°44' W 118°17'0 1.9
2018-Jun-14 00:00N 33°44' W 118°16'3 5.6
2018-Jun-13 23:30N 33°43' W 118°13'3 5.7
2018-Jun-13 23:00N 33°44' W 118°10'0 0.0
2018-Jun-13 22:30N 33°44' W 118°10'0 0.0
2018-Jun-13 21:58N 33°44' W 118°10'0 0.0
2018-Jun-13 21:29N 33°44' W 118°10'0 0.0
2018-Jun-13 20:59N 33°44' W 118°10'0 0.1
2018-Jun-13 20:29N 33°44' W 118°10'0 0.1
2018-Jun-13 20:00N 33°44' W 118°10'0 0.0
2018-Jun-13 19:30N 33°44' W 118°10'0 0.0
2018-Jun-13 18:59N 33°44' W 118°10'0 0.0
2018-Jun-13 18:30N 33°44' W 118°10'0 0.1
2018-Jun-13 18:00N 33°44' W 118°10'0 0.1
2018-Jun-13 17:30N 33°44' W 118°10'0 0.1
2018-Jun-13 17:00N 33°44' W 118°10'0 0.1
2018-Jun-13 16:29N 33°44' W 118°10'0 0.0
2018-Jun-13 16:00N 33°44' W 118°10'1 1.5
2018-Jun-13 15:30N 33°44' W 118°11'  
Track history (hours):
 
Tides and Currents Weather Stations Pressure Air Temp Water Temp Dewpoint Dewpoint Depression Visibility Wind Speed Wind Dir Waves Ship Positions

Vicki Ann

Owner: JANKOVICH, TOM J, SAN PEDRO, CA. More information available from US FCC via Universal Licensing System and Coast Guard Vessel Documentation Center.

Last reported at 2018-Jun-23 15:29 UTC. Time now 2018-Jun-23 15:45 UTC.
Position N 33°46' W 118°16'.

MMSI: 367006790.

Date/timePositionNaut miles runAvg speedWind from/ knotsBaromVisibWave heightAir tempDewpointWater temp
2018-Jun-23 15:29N 33°46' W 118°16'0 0.0
2018-Jun-23 15:00N 33°46' W 118°16'0 0.4
2018-Jun-23 14:30N 33°46' W 118°17'2 3.8
2018-Jun-23 14:00N 33°44' W 118°16'0 0.1
2018-Jun-23 13:30N 33°44' W 118°17'0 0.0
2018-Jun-23 12:59N 33°44' W 118°17'0 0.0
2018-Jun-22 23:16N 33°44' W 118°17'0 0.1
2018-Jun-22 23:00N 33°44' W 118°17'0 0.1
2018-Jun-22 22:30N 33°44' W 118°16'2 4.7
2018-Jun-22 22:00N 33°44' W 118°14'1 1.6
2018-Jun-22 21:30N 33°44' W 118°13'0 0.0
2018-Jun-22 21:00N 33°44' W 118°13'0 0.0
2018-Jun-22 20:30N 33°44' W 118°13'0 0.0
2018-Jun-22 20:00N 33°44' W 118°13'2 4.2
2018-Jun-22 19:30N 33°43' W 118°15'2 3.7
2018-Jun-22 19:00N 33°44' W 118°17'0 0.0
2018-Jun-20 22:39N 33°44' W 118°17'0 0.0
2018-Jun-20 22:30N 33°44' W 118°17'0 0.1
2018-Jun-20 22:00N 33°44' W 118°16'0 0.1
2018-Jun-20 21:30N 33°44' W 118°17'0 0.0
2018-Jun-20 21:00N 33°44' W 118°17'0 0.0
2018-Jun-20 20:29N 33°44' W 118°17'0 0.4
2018-Jun-20 20:00N 33°44' W 118°16'0 0.1
2018-Jun-20 19:30N 33°44' W 118°16'0 0.0
2018-Jun-20 19:00N 33°44' W 118°16'0 0.0
2018-Jun-20 18:30N 33°44' W 118°16'0 0.0
2018-Jun-20 18:00N 33°44' W 118°16'0 0.0
2018-Jun-20 17:30N 33°44' W 118°16'0 0.0
2018-Jun-20 17:00N 33°44' W 118°16'0 0.0
2018-Jun-20 16:30N 33°44' W 118°16'0 0.0
2018-Jun-20 16:00N 33°44' W 118°16'0 0.0
2018-Jun-20 15:30N 33°44' W 118°16'0 0.4
2018-Jun-20 15:00N 33°44' W 118°16'0 0.2
2018-Jun-20 14:30N 33°44' W 118°17'0 0.0
2018-Jun-19 23:25N 33°44' W 118°16'2 4.0
2018-Jun-19 23:00N 33°43' W 118°15'1 2.3
2018-Jun-19 22:30N 33°43' W 118°14'0 0.0
2018-Jun-19 22:00N 33°43' W 118°14'0 0.0
2018-Jun-19 21:30N 33°43' W 118°14'0 0.0
2018-Jun-19 21:00N 33°43' W 118°14'0 0.0
2018-Jun-19 20:29N 33°43' W 118°14'0 0.1
2018-Jun-19 20:00N 33°43' W 118°14'0 0.0
2018-Jun-19 19:30N 33°43' W 118°14'0 0.0
2018-Jun-19 19:00N 33°43' W 118°14'0 0.0
2018-Jun-19 18:30N 33°43' W 118°14'0 0.0
2018-Jun-19 17:59N 33°43' W 118°14'0 0.0
2018-Jun-19 17:30N 33°43' W 118°14'1 2.3
2018-Jun-19 17:00N 33°44' W 118°13'2 3.6
2018-Jun-19 16:30N 33°46' W 118°13'0 0.0
2018-Jun-19 15:59N 33°46' W 118°13'0 0.0
2018-Jun-19 15:30N 33°46' W 118°13'0 0.0
2018-Jun-19 15:00N 33°46' W 118°13'0 0.0
2018-Jun-19 14:30N 33°46' W 118°13'0 0.0
2018-Jun-19 14:00N 33°46' W 118°13'0 0.0
2018-Jun-19 13:30N 33°46' W 118°13'0 0.0
2018-Jun-19 13:00N 33°46' W 118°13'2 3.6
2018-Jun-19 12:29N 33°44' W 118°13'3 5.2
2018-Jun-19 12:00N 33°43' W 118°16'1 1.9
2018-Jun-19 11:30N 33°44' W 118°17'0 0.0
2018-Jun-19 03:23N 33°44' W 118°17'1 2.7
2018-Jun-19 03:00N 33°44' W 118°15'0 0.8
2018-Jun-19 02:30N 33°44' W 118°15'0 0.0
2018-Jun-19 01:58N 33°44' W 118°15'0 0.0
2018-Jun-19 01:28N 33°44' W 118°15'0 0.0
2018-Jun-19 01:00N 33°44' W 118°15'0 0.0
2018-Jun-19 00:29N 33°44' W 118°15'0 0.1
2018-Jun-19 00:00N 33°44' W 118°15'0 0.1
2018-Jun-18 23:30N 33°44' W 118°15'0 0.0
2018-Jun-18 23:00N 33°44' W 118°15'0 0.0
2018-Jun-18 22:30N 33°44' W 118°15'0 0.0
2018-Jun-18 22:00N 33°44' W 118°15'0 0.0
2018-Jun-18 21:30N 33°44' W 118°15'0 0.1
2018-Jun-18 21:00N 33°44' W 118°15'0 0.0
2018-Jun-18 20:30N 33°44' W 118°15'0 0.0
2018-Jun-18 20:00N 33°44' W 118°15'0 0.0
2018-Jun-18 19:30N 33°44' W 118°15'0 0.0
2018-Jun-18 19:00N 33°44' W 118°15'0 0.1
2018-Jun-18 18:30N 33°44' W 118°15'0 0.0
2018-Jun-18 18:00N 33°44' W 118°15'0 0.0
2018-Jun-18 17:29N 33°44' W 118°15'0 0.0
2018-Jun-18 17:00N 33°44' W 118°15'0 0.0
2018-Jun-18 16:30N 33°44' W 118°15'0 0.1
2018-Jun-18 16:00N 33°44' W 118°15'1 2.7
2018-Jun-18 15:30N 33°44' W 118°16'0 0.1
2018-Jun-18 15:00N 33°44' W 118°17'0 0.0
2018-Jun-18 14:30N 33°44' W 118°17'0 0.0
2018-Jun-18 14:00N 33°44' W 118°17'0 0.0
2018-Jun-18 13:30N 33°44' W 118°17'0 0.0
2018-Jun-18 13:00N 33°44' W 118°17'0 0.0
2018-Jun-18 03:33N 33°44' W 118°17'0 0.2
2018-Jun-18 03:31N 33°44' W 118°17'2 3.1
2018-Jun-18 03:00N 33°45' W 118°16'1 2.1
2018-Jun-18 02:31N 33°44' W 118°17'1 1.1
2018-Jun-18 02:00N 33°44' W 118°17'0 0.0
2018-Jun-18 01:31N 33°44' W 118°17'0 0.0
2018-Jun-18 01:00N 33°44' W 118°17'0 0.0
2018-Jun-18 00:31N 33°44' W 118°17'0 0.0
2018-Jun-18 00:01N 33°44' W 118°17'0 0.0
2018-Jun-17 23:30N 33°44' W 118°17'2 3.2
2018-Jun-17 23:01N 33°45' W 118°16'2 3.2
2018-Jun-17 22:30N 33°44' W 118°16'2 4.6
2018-Jun-17 22:01N 33°43' W 118°14'0 0.9
2018-Jun-17 21:31N 33°43' W 118°14'2 4.1
2018-Jun-17 21:01N 33°44' W 118°17'1 2.2
2018-Jun-17 20:31N 33°45' W 118°16'0 0.0
2018-Jun-17 20:01N 33°45' W 118°16'1 1.8
2018-Jun-17 19:31N 33°44' W 118°16'3 5.3
2018-Jun-17 19:00N 33°44' W 118°13'1 1.9
2018-Jun-17 18:31N 33°44' W 118°12'1 2.8
2018-Jun-17 18:00N 33°45' W 118°11'0 0.1
2018-Jun-17 17:30N 33°45' W 118°11'0 0.0
2018-Jun-17 17:01N 33°45' W 118°11'2 3.2
2018-Jun-17 16:31N 33°45' W 118°13'2 4.3
2018-Jun-17 16:01N 33°45' W 118°16'1 2.5
2018-Jun-17 15:30N 33°44' W 118°17'2 3.0
2018-Jun-17 15:00N 33°43' W 118°16'4 8.5
2018-Jun-17 14:31N 33°44' W 118°11'0 0.3
2018-Jun-17 14:00N 33°44' W 118°11'3 6.3
2018-Jun-17 13:30N 33°43' W 118°14'2 4.0
2018-Jun-17 13:01N 33°44' W 118°17'0 0.0
2018-Jun-17 03:20N 33°44' W 118°17'1 2.2
2018-Jun-17 03:00N 33°44' W 118°16'1 1.2
2018-Jun-17 02:30N 33°44' W 118°15'0 0.0
2018-Jun-17 02:00N 33°44' W 118°15'0 0.0
2018-Jun-17 01:30N 33°44' W 118°15'1 1.5
2018-Jun-17 01:01N 33°43' W 118°16'1 1.4
2018-Jun-17 00:30N 33°44' W 118°17'0 0.0
2018-Jun-17 00:00N 33°44' W 118°17'1 2.4
2018-Jun-16 23:30N 33°44' W 118°15'0 0.0
2018-Jun-16 23:00N 33°44' W 118°15'0 0.1
2018-Jun-16 22:30N 33°44' W 118°15'1 1.9
2018-Jun-16 22:00N 33°43' W 118°16'1 1.5
2018-Jun-16 21:30N 33°44' W 118°17'0 0.0
2018-Jun-16 21:00N 33°44' W 118°17'0 0.0
2018-Jun-16 20:30N 33°44' W 118°17'0 0.0
2018-Jun-16 20:00N 33°44' W 118°17'0 0.0
2018-Jun-16 19:30N 33°44' W 118°17'0 0.0
2018-Jun-16 19:00N 33°44' W 118°17'0 0.0
2018-Jun-16 18:31N 33°44' W 118°17'0 0.0
2018-Jun-16 17:56N 33°44' W 118°17'0 0.0
2018-Jun-16 17:30N 33°44' W 118°17'0 0.0
2018-Jun-16 16:59N 33°44' W 118°17'0 0.0
2018-Jun-16 16:31N 33°44' W 118°17'0 0.0
2018-Jun-16 16:00N 33°44' W 118°17'0 0.0
2018-Jun-16 15:30N 33°44' W 118°17'0 0.0
2018-Jun-16 15:00N 33°44' W 118°17'0 0.0
2018-Jun-16 14:30N 33°44' W 118°17'0 0.0
2018-Jun-16 14:00N 33°44' W 118°17'0 0.0
2018-Jun-15 21:03N 33°44' W 118°17'0 0.1
2018-Jun-15 21:00N 33°44' W 118°17'2 3.6
2018-Jun-15 20:31N 33°45' W 118°16'0 0.2
2018-Jun-15 20:01N 33°45' W 118°16'0 0.0
2018-Jun-15 19:31N 33°45' W 118°16'0 0.0
2018-Jun-15 19:01N 33°45' W 118°16'0 0.0
2018-Jun-15 18:31N 33°45' W 118°16'0 0.0
2018-Jun-15 18:00N 33°45' W 118°16'0 0.0
2018-Jun-15 17:30N 33°45' W 118°16'0 0.8
2018-Jun-15 17:00N 33°45' W 118°16'2 4.4
2018-Jun-15 16:30N 33°43' W 118°16'2 5.0
2018-Jun-15 16:01N 33°43' W 118°13'1 2.8
2018-Jun-15 15:31N 33°44' W 118°11'0 0.0
2018-Jun-15 11:52N 33°44' W 118°11'0 0.3
2018-Jun-15 11:30N 33°44' W 118°11'2 3.9
2018-Jun-15 11:00N 33°43' W 118°13'3 5.1
2018-Jun-15 10:31N 33°43' W 118°16'0 0.0
2018-Jun-14 23:28N 33°44' W 118°16'0 0.1
2018-Jun-14 23:00N 33°44' W 118°17'0 0.1
2018-Jun-14 22:30N 33°44' W 118°16'0 0.1
2018-Jun-14 22:00N 33°44' W 118°17'0 0.0
2018-Jun-14 21:29N 33°44' W 118°17'1 3.1
2018-Jun-14 21:00N 33°43' W 118°15'2 4.2
2018-Jun-14 20:30N 33°44' W 118°13'1 2.5
2018-Jun-14 20:00N 33°45' W 118°12'0 0.0
2018-Jun-14 19:30N 33°45' W 118°12'3 5.6
2018-Jun-14 19:00N 33°43' W 118°14'2 3.9
2018-Jun-14 18:30N 33°44' W 118°17'0 0.5
2018-Jun-14 17:59N 33°44' W 118°16'0 0.0
2018-Jun-14 17:30N 33°44' W 118°16'0 0.0
2018-Jun-14 17:00N 33°44' W 118°16'0 0.0
2018-Jun-14 16:30N 33°44' W 118°16'0 0.0
2018-Jun-14 16:00N 33°44' W 118°16'0 0.0
2018-Jun-14 15:30N 33°44' W 118°16'0 0.0
2018-Jun-14 15:00N 33°44' W 118°16'0 0.0
2018-Jun-14 14:30N 33°44' W 118°16'0 0.0
2018-Jun-14 14:00N 33°44' W 118°16'0 0.5
2018-Jun-14 13:30N 33°44' W 118°17'0 0.0
2018-Jun-14 00:08N 33°44' W 118°17'0 1.9
2018-Jun-14 00:00N 33°44' W 118°16'3 5.6
2018-Jun-13 23:30N 33°43' W 118°13'3 5.7
2018-Jun-13 23:00N 33°44' W 118°10'0 0.0
2018-Jun-13 22:30N 33°44' W 118°10'0 0.0
2018-Jun-13 21:58N 33°44' W 118°10'0 0.0
2018-Jun-13 21:29N 33°44' W 118°10'0 0.0
2018-Jun-13 20:59N 33°44' W 118°10'0 0.1
2018-Jun-13 20:29N 33°44' W 118°10'0 0.1
2018-Jun-13 20:00N 33°44' W 118°10'0 0.0
2018-Jun-13 19:30N 33°44' W 118°10'0 0.0
2018-Jun-13 18:59N 33°44' W 118°10'0 0.0
2018-Jun-13 18:30N 33°44' W 118°10'0 0.1
2018-Jun-13 18:00N 33°44' W 118°10'0 0.1
2018-Jun-13 17:30N 33°44' W 118°10'0 0.1
2018-Jun-13 17:00N 33°44' W 118°10'0 0.1
2018-Jun-13 16:29N 33°44' W 118°10'0 0.0
2018-Jun-13 16:00N 33°44' W 118°10'1 1.5
2018-Jun-13 15:30N 33°44' W 118°11'  

Dump ship's entire track history